createdAt,value
2022-12-08T00:01:59.799Z,18505.22
2022-12-08T00:04:28.144Z,18509.28
2022-12-08T00:07:19.174Z,18513.34
2022-12-08T00:09:47.298Z,18531.63
2022-12-08T00:12:16.518Z,18499.13
2022-12-08T00:14:49.766Z,18523.50
2022-12-08T00:17:18.772Z,18553.97
2022-12-08T00:19:47.242Z,18531.63
2022-12-08T00:22:15.716Z,18513.34
2022-12-08T00:24:46.372Z,18525.53
2022-12-08T00:27:18.022Z,18521.47
2022-12-08T00:29:47.767Z,18547.88
2022-12-08T00:32:16.091Z,18519.44
2022-12-08T00:34:44.272Z,18505.22
2022-12-08T00:37:12.404Z,18507.25
2022-12-08T00:39:40.544Z,18495.06
2022-12-08T00:42:15.341Z,18499.13
2022-12-08T00:44:45.854Z,18493.03
2022-12-08T00:47:19.742Z,18511.31
2022-12-08T00:49:50.323Z,18480.84
2022-12-08T00:52:18.483Z,18497.09
2022-12-08T00:54:46.547Z,18436.16
2022-12-08T00:57:14.672Z,18468.66
2022-12-08T00:59:42.830Z,18484.91
2022-12-08T01:02:10.923Z,18452.41
2022-12-08T01:04:40.508Z,18456.47
2022-12-08T01:07:09.374Z,18460.53
2022-12-08T01:09:37.764Z,18484.91
2022-12-08T01:12:07.261Z,18497.09
2022-12-08T01:14:35.429Z,18505.22
2022-12-08T01:17:03.645Z,18499.13
2022-12-08T01:19:31.845Z,18488.97
2022-12-08T01:22:01.284Z,18464.59
2022-12-08T01:24:29.460Z,18468.66
2022-12-08T01:26:57.561Z,18474.75
2022-12-08T01:29:27.346Z,18513.34
2022-12-08T01:31:55.426Z,18444.28
2022-12-08T01:34:23.535Z,18507.25
2022-12-08T01:36:51.665Z,18482.88
2022-12-08T01:39:21.245Z,18482.88
2022-12-08T01:41:49.543Z,18476.78
2022-12-08T01:44:55.352Z,18456.47
2022-12-08T01:47:28.636Z,18456.47
2022-12-08T01:49:56.956Z,18454.44
2022-12-08T01:52:33.655Z,18428.03
2022-12-08T01:55:09.748Z,18446.31
2022-12-08T01:57:44.691Z,18466.63
2022-12-08T02:00:16.921Z,18474.75
2022-12-08T02:02:55.201Z,18442.25
2022-12-08T02:05:29.548Z,18470.69
2022-12-08T02:08:01.866Z,18493.03
2022-12-08T02:10:35.604Z,18505.22
2022-12-08T02:13:07.617Z,18464.59
2022-12-08T02:15:47.248Z,18488.97
2022-12-08T02:18:40.021Z,18470.69
2022-12-08T02:21:14.763Z,18454.44
2022-12-08T02:23:54.933Z,18468.66
2022-12-08T02:27:26.773Z,18503.19
2022-12-08T02:30:25.827Z,18505.22
2022-12-08T02:33:41.913Z,18486.94
2022-12-08T02:36:18.702Z,18515.38
2022-12-08T02:39:01.730Z,18519.44
2022-12-08T02:41:42.991Z,18503.19
2022-12-08T02:44:23.493Z,18529.59
2022-12-08T02:46:58.517Z,18533.66
2022-12-08T02:49:31.605Z,18558.03
2022-12-08T02:52:08.765Z,18545.84
2022-12-08T02:54:38.756Z,18521.47
2022-12-08T02:57:40.965Z,18521.47
2022-12-08T03:00:13.462Z,18556.00
2022-12-08T03:02:57.314Z,18560.06
2022-12-08T03:05:56.121Z,18505.22
2022-12-08T03:08:31.594Z,18549.91
2022-12-08T03:11:10.339Z,18576.31
2022-12-08T03:13:44.720Z,18545.84
2022-12-08T03:16:19.619Z,18556.00
2022-12-08T03:18:54.129Z,18537.72
2022-12-08T03:21:24.180Z,18545.84
2022-12-08T03:23:57.671Z,18545.84
2022-12-08T03:26:33.476Z,18545.84
2022-12-08T03:29:01.964Z,18576.31
2022-12-08T03:31:36.178Z,18551.94
2022-12-08T03:34:06.625Z,18549.91
2022-12-08T03:36:36.137Z,18553.97
2022-12-08T03:39:04.642Z,18545.84
2022-12-08T03:41:32.908Z,18537.72
2022-12-08T03:44:01.043Z,18560.06
2022-12-08T03:46:32.285Z,18499.13
2022-12-08T03:49:00.508Z,18533.66
2022-12-08T03:51:28.701Z,18505.22
2022-12-08T03:53:58.213Z,18543.81
2022-12-08T03:56:29.612Z,18505.22
2022-12-08T03:58:58.183Z,18519.44
2022-12-08T04:01:27.381Z,18499.13
2022-12-08T04:03:56.255Z,18525.53
2022-12-08T04:06:25.147Z,18543.81
2022-12-08T04:08:54.046Z,18527.56
2022-12-08T04:11:23.607Z,18551.94
2022-12-08T04:13:51.859Z,18560.06
2022-12-08T04:16:23.065Z,18511.31
2022-12-08T04:18:51.851Z,18515.38
2022-12-08T04:21:20.512Z,18549.91
2022-12-08T04:23:49.417Z,18521.47
2022-12-08T04:26:18.073Z,18537.72
2022-12-08T04:28:47.721Z,18513.34
2022-12-08T04:31:16.109Z,18568.19
2022-12-08T04:33:44.275Z,18501.16
2022-12-08T04:36:12.428Z,18533.66
2022-12-08T04:38:40.535Z,18533.66
2022-12-08T04:41:09.045Z,18535.69
2022-12-08T04:43:37.809Z,18499.13
2022-12-08T04:46:09.960Z,18501.16
2022-12-08T04:48:40.637Z,18517.41
2022-12-08T04:51:15.840Z,18517.41
2022-12-08T04:53:46.681Z,18482.88
2022-12-08T04:56:15.975Z,18499.13
2022-12-08T04:58:44.250Z,18525.53
2022-12-08T05:01:14.536Z,18517.41
2022-12-08T05:03:42.926Z,18578.38
2022-12-08T05:06:14.756Z,18558.03
2022-12-08T05:08:43.911Z,18574.28
2022-12-08T05:11:14.501Z,18521.47
2022-12-08T05:13:42.707Z,18564.13
2022-12-08T05:16:15.533Z,18531.63
2022-12-08T05:18:44.481Z,18537.72
2022-12-08T05:21:12.943Z,18533.66
2022-12-08T05:23:41.075Z,18545.84
2022-12-08T05:26:09.634Z,18553.97
2022-12-08T05:28:42.625Z,18531.63
2022-12-08T05:31:13.206Z,18533.66
2022-12-08T05:33:41.819Z,18547.88
2022-12-08T05:36:11.029Z,18517.41
2022-12-08T05:38:39.204Z,18529.59
2022-12-08T05:41:08.253Z,18558.03
2022-12-08T05:43:36.818Z,18562.09
2022-12-08T05:46:05.104Z,18576.31
2022-12-08T05:48:35.264Z,18586.50
2022-12-08T05:51:04.053Z,18558.03
2022-12-08T05:53:32.567Z,18543.81
2022-12-08T05:56:00.654Z,18529.59
2022-12-08T05:58:28.704Z,18562.09
2022-12-08T06:00:56.801Z,18519.44
2022-12-08T06:03:24.949Z,18564.13
2022-12-08T06:05:54.476Z,18525.53
2022-12-08T06:08:22.612Z,18551.94
2022-12-08T06:10:50.949Z,18590.56
2022-12-08T06:13:19.100Z,18568.19
2022-12-08T06:15:47.204Z,18539.75
2022-12-08T06:18:15.293Z,18553.97
2022-12-08T06:20:43.409Z,18529.59
2022-12-08T06:23:12.871Z,18562.09
2022-12-08T06:25:40.962Z,18525.53
2022-12-08T06:28:09.083Z,18503.19
2022-12-08T06:30:38.744Z,18491.00
2022-12-08T06:33:06.823Z,18523.50
2022-12-08T06:35:34.917Z,18499.13
2022-12-08T06:38:02.994Z,18513.34
2022-12-08T06:40:32.580Z,18515.38
2022-12-08T06:43:00.667Z,18543.81
2022-12-08T06:45:28.795Z,18493.03
2022-12-08T06:47:56.930Z,18503.19
2022-12-08T06:50:25.302Z,18553.97
2022-12-08T06:53:04.547Z,18513.34
2022-12-08T06:58:23.345Z,18493.03
2022-12-08T07:00:51.584Z,18493.03
2022-12-08T07:03:19.754Z,18488.97
2022-12-08T07:05:47.948Z,18507.25
2022-12-08T07:08:16.284Z,18505.22
2022-12-08T07:10:45.718Z,18513.34
2022-12-08T07:13:13.812Z,18525.53
2022-12-08T07:15:42.027Z,18519.44
2022-12-08T07:18:10.121Z,18529.59
2022-12-08T07:20:38.701Z,18521.47
2022-12-08T07:23:06.807Z,18527.56
2022-12-08T07:25:35.023Z,18529.59
2022-12-08T07:28:10.865Z,18564.13
2022-12-08T07:30:39.784Z,18513.34
2022-12-08T07:33:07.963Z,18535.69
2022-12-08T07:35:36.049Z,18556.00
2022-12-08T07:38:04.374Z,18574.28
2022-12-08T07:40:32.433Z,18576.31
2022-12-08T07:43:00.427Z,18580.41
2022-12-08T07:45:31.670Z,18574.28
2022-12-08T07:48:00.049Z,18537.72
2022-12-08T07:50:28.161Z,18547.88
2022-12-08T07:52:56.219Z,18586.50
2022-12-08T07:55:24.312Z,18594.63
2022-12-08T07:57:52.698Z,18572.25
2022-12-08T08:00:22.391Z,18580.41
2022-12-08T08:02:51.900Z,18580.41
2022-12-08T08:05:20.574Z,18570.22
2022-12-08T08:07:48.675Z,18582.44
2022-12-08T08:10:16.954Z,18570.22
2022-12-08T08:12:45.023Z,18572.25
2022-12-08T08:15:13.499Z,18576.31
2022-12-08T08:17:41.556Z,18584.47
2022-12-08T08:20:12.871Z,18604.78
2022-12-08T08:22:41.054Z,18602.75
2022-12-08T08:25:10.222Z,18616.97
2022-12-08T08:27:38.316Z,18588.53
2022-12-08T08:30:08.789Z,18586.50
2022-12-08T08:32:37.468Z,18608.84
2022-12-08T08:35:07.264Z,18594.63
2022-12-08T08:37:36.751Z,18614.94
2022-12-08T08:40:06.123Z,18651.50
2022-12-08T08:42:34.481Z,18635.25
2022-12-08T08:45:02.624Z,18667.75
2022-12-08T08:47:30.672Z,18651.50
2022-12-08T08:49:58.732Z,18681.97
2022-12-08T08:52:26.757Z,18679.94
2022-12-08T08:54:56.130Z,18704.31
2022-12-08T08:57:25.933Z,18686.03
2022-12-08T08:59:54.474Z,18718.56
2022-12-08T09:02:23.189Z,18724.66
2022-12-08T09:04:51.445Z,18671.81
2022-12-08T09:07:19.668Z,18747.00
2022-12-08T09:09:47.994Z,18736.84
2022-12-08T09:12:17.504Z,18720.59
2022-12-08T09:14:45.776Z,18718.56
2022-12-08T09:17:14.341Z,18726.69
2022-12-08T09:19:42.643Z,18712.47
2022-12-08T09:22:10.720Z,18783.56
2022-12-08T09:24:38.887Z,18763.25
2022-12-08T09:27:06.954Z,18755.13
2022-12-08T09:29:36.631Z,18757.16
2022-12-08T09:32:05.167Z,18747.00
2022-12-08T09:34:33.207Z,18749.03
2022-12-08T09:37:01.247Z,18744.97
2022-12-08T09:39:29.479Z,18742.94
2022-12-08T09:42:02.766Z,18722.63
2022-12-08T09:45:01.314Z,18744.97
2022-12-08T09:47:36.612Z,18724.66
2022-12-08T09:50:12.271Z,18757.16
2022-12-08T09:52:48.311Z,18751.06
2022-12-08T09:55:25.511Z,18818.09
2022-12-08T09:58:04.573Z,18749.03
2022-12-08T10:00:35.383Z,18834.38
2022-12-08T10:03:03.529Z,18767.31
2022-12-08T10:05:38.600Z,18818.09
2022-12-08T10:08:19.354Z,18836.41
2022-12-08T10:10:56.851Z,18826.25
2022-12-08T10:13:38.709Z,18826.25
2022-12-08T10:16:29.535Z,18791.69
2022-12-08T10:19:11.631Z,18836.41
2022-12-08T10:21:41.686Z,18870.94
2022-12-08T10:24:25.815Z,18872.97
2022-12-08T10:26:55.237Z,18852.66
2022-12-08T10:29:23.298Z,18834.38
2022-12-08T10:31:52.788Z,18820.16
2022-12-08T10:34:24.266Z,18805.91
2022-12-08T10:36:56.026Z,18824.22
2022-12-08T10:39:39.828Z,18812.00
2022-12-08T10:42:21.867Z,18822.19
2022-12-08T10:45:03.622Z,18830.31
2022-12-08T10:47:38.991Z,18850.63
2022-12-08T10:50:19.909Z,18828.28
2022-12-08T10:52:56.345Z,18860.78
2022-12-08T10:55:25.337Z,18836.41
2022-12-08T10:57:53.536Z,18850.63
2022-12-08T11:00:26.403Z,18860.78
2022-12-08T11:03:00.757Z,18860.78
2022-12-08T11:05:33.834Z,18852.66
2022-12-08T11:08:03.775Z,18858.75
2022-12-08T11:10:43.367Z,18848.59
2022-12-08T11:13:20.760Z,18879.06
2022-12-08T11:15:50.221Z,18883.13
2022-12-08T11:18:28.788Z,18864.84
2022-12-08T11:21:07.569Z,18921.75
2022-12-08T11:23:38.256Z,18923.78
2022-12-08T11:26:19.843Z,18909.53
2022-12-08T11:28:48.217Z,18944.09
2022-12-08T11:31:30.032Z,18925.81
2022-12-08T11:33:59.665Z,18942.06
2022-12-08T11:36:34.119Z,18935.97
2022-12-08T11:39:05.634Z,18935.97
2022-12-08T11:41:41.260Z,18948.16
2022-12-08T11:44:38.620Z,18952.22
2022-12-08T11:47:15.721Z,18940.03
2022-12-08T11:49:48.284Z,18913.59
2022-12-08T11:52:28.502Z,18923.78
2022-12-08T11:55:05.489Z,18919.69
2022-12-08T11:57:33.946Z,18929.88
2022-12-08T12:00:04.714Z,18925.81
2022-12-08T12:02:42.539Z,18905.47
2022-12-08T12:06:03.345Z,18901.41
2022-12-08T12:08:42.366Z,18895.31
2022-12-08T12:11:41.998Z,18883.13
2022-12-08T12:14:35.579Z,18846.56
2022-12-08T12:17:07.257Z,18921.75
2022-12-08T12:19:39.943Z,18866.88
2022-12-08T12:22:19.504Z,18875.00
2022-12-08T12:24:52.541Z,18862.81
2022-12-08T12:27:30.838Z,18885.16
2022-12-08T12:30:04.084Z,18870.94
2022-12-08T12:32:47.242Z,18895.31
2022-12-08T12:35:27.211Z,18830.31
2022-12-08T12:38:03.639Z,18836.41
2022-12-08T12:40:44.409Z,18856.72
2022-12-08T12:43:31.354Z,18872.97
2022-12-08T12:46:41.175Z,18840.47
2022-12-08T12:50:15.954Z,18826.25
2022-12-08T12:52:51.030Z,18870.94
2022-12-08T12:55:55.610Z,18875.00
2022-12-08T12:58:42.583Z,18848.59
2022-12-08T13:01:56.653Z,18881.09
2022-12-08T13:04:35.456Z,18846.56
2022-12-08T13:07:05.070Z,18844.53
2022-12-08T13:09:39.220Z,18885.16
2022-12-08T13:12:23.890Z,18822.19
2022-12-08T13:14:55.545Z,18866.88
2022-12-08T13:17:30.777Z,18842.50
2022-12-08T13:20:01.716Z,18830.31
2022-12-08T13:22:50.860Z,18842.50
2022-12-08T13:26:13.534Z,18840.47
2022-12-08T13:29:23.999Z,18816.06
2022-12-08T13:31:54.494Z,18850.63
2022-12-08T13:34:37.834Z,18846.56
2022-12-08T13:37:26.280Z,18844.53
2022-12-08T13:40:02.873Z,18822.19
2022-12-08T13:42:43.034Z,18838.44
2022-12-08T13:45:48.563Z,18846.56
2022-12-08T13:48:35.105Z,18836.41
2022-12-08T13:57:10.664Z,18856.72
2022-12-08T13:59:45.886Z,18832.34
2022-12-08T14:02:26.662Z,18799.81
2022-12-08T14:07:49.306Z,18814.03
2022-12-08T14:10:23.083Z,18805.91
2022-12-08T14:12:58.710Z,18781.53
2022-12-08T14:15:31.258Z,18779.50
2022-12-08T14:18:03.600Z,18807.94
2022-12-08T14:20:51.797Z,18775.44
2022-12-08T14:23:20.331Z,18791.69
2022-12-08T14:25:49.283Z,18809.97
2022-12-08T14:28:18.338Z,18765.28
2022-12-08T14:30:46.518Z,18749.03
2022-12-08T14:33:17.903Z,18753.09
2022-12-08T14:35:53.137Z,18769.34
2022-12-08T14:38:23.841Z,18777.47
2022-12-08T14:41:03.556Z,18763.25
2022-12-08T14:43:33.328Z,18751.06
2022-12-08T14:46:06.157Z,18728.72
2022-12-08T14:48:44.595Z,18704.31
2022-12-08T14:51:27.733Z,18704.31
2022-12-08T14:53:59.610Z,18708.41
2022-12-08T14:56:34.279Z,18757.16
2022-12-08T14:59:13.764Z,18722.63
2022-12-08T15:01:43.863Z,18710.44
2022-12-08T15:04:21.132Z,18704.31
2022-12-08T15:06:54.576Z,18716.53
2022-12-08T15:09:33.397Z,18686.03
2022-12-08T15:12:03.306Z,18690.09
2022-12-08T15:14:35.581Z,18673.84
2022-12-08T15:17:04.417Z,18657.59
2022-12-08T15:19:35.478Z,18712.47
2022-12-08T15:22:16.833Z,18681.97
2022-12-08T15:24:44.922Z,18688.06
2022-12-08T15:27:20.048Z,18714.50
2022-12-08T15:29:49.123Z,18690.09
2022-12-08T15:32:21.220Z,18692.13
2022-12-08T15:34:51.615Z,18690.09
2022-12-08T15:37:23.852Z,18688.06
2022-12-08T15:39:52.816Z,18665.72
2022-12-08T15:42:20.911Z,18663.69
2022-12-08T15:44:49.040Z,18675.88
2022-12-08T15:47:20.346Z,18675.88
2022-12-08T15:49:52.487Z,18694.16
2022-12-08T15:52:23.913Z,18659.63
2022-12-08T15:54:52.235Z,18700.25
2022-12-08T15:58:10.862Z,18659.63
2022-12-08T16:00:51.953Z,18684.00
2022-12-08T16:04:09.379Z,18665.72
2022-12-08T16:09:19.208Z,18675.88
2022-12-08T16:12:07.840Z,18720.59
2022-12-08T16:17:26.870Z,18700.25
2022-12-08T16:19:55.469Z,18706.38
2022-12-08T16:25:19.988Z,18740.91
2022-12-08T16:28:29.247Z,18716.53
2022-12-08T16:30:39.121Z,18728.72
2022-12-08T16:33:07.939Z,18671.81
2022-12-08T16:35:36.113Z,18679.94
2022-12-08T16:38:05.641Z,18647.44
2022-12-08T16:40:54.118Z,18637.28
2022-12-08T16:43:21.214Z,18643.38
2022-12-08T16:45:49.328Z,18641.34
2022-12-08T16:48:17.507Z,18616.97
2022-12-08T16:50:47.156Z,18629.16
2022-12-08T16:53:16.562Z,18588.53
2022-12-08T16:55:48.179Z,18612.91
2022-12-08T16:58:18.510Z,18598.69
2022-12-08T17:00:47.078Z,18598.69
2022-12-08T17:03:17.601Z,18598.69
2022-12-08T17:05:45.763Z,18610.88
2022-12-08T17:08:14.092Z,18594.63
2022-12-08T17:10:43.846Z,18594.63
2022-12-08T17:13:12.996Z,18606.81
2022-12-08T17:15:41.476Z,18560.06
2022-12-08T17:18:09.566Z,18549.91
2022-12-08T17:20:37.666Z,18578.38
2022-12-08T17:23:05.732Z,18562.09
2022-12-08T17:25:33.840Z,18553.97
2022-12-08T17:28:03.233Z,18515.38
2022-12-08T17:30:31.265Z,18533.66
2022-12-08T17:32:59.336Z,18549.91
2022-12-08T17:35:27.865Z,18533.66
2022-12-08T17:37:55.909Z,18525.53
2022-12-08T17:40:28.122Z,18501.16
2022-12-08T17:42:56.418Z,18519.44
2022-12-08T17:45:25.819Z,18509.28
2022-12-08T17:47:53.877Z,18523.50
2022-12-08T17:50:21.980Z,18519.44
2022-12-08T17:52:51.421Z,18488.97
2022-12-08T17:55:19.517Z,18503.19
2022-12-08T17:57:47.583Z,18501.16
2022-12-08T18:00:16.751Z,18535.69
2022-12-08T18:02:46.196Z,18476.78
2022-12-08T18:05:14.345Z,18503.19
2022-12-08T18:07:42.470Z,18543.81
2022-12-08T18:10:11.129Z,18509.28
2022-12-08T18:12:39.216Z,18497.09
2022-12-08T18:15:13.012Z,18474.75
2022-12-08T18:17:41.165Z,18507.25
2022-12-08T18:20:12.234Z,18517.41
2022-12-08T18:22:40.881Z,18523.50
2022-12-08T18:25:11.013Z,18531.63
2022-12-08T18:27:43.046Z,18484.91
2022-12-08T18:30:17.703Z,18497.09
2022-12-08T18:32:46.122Z,18523.50
2022-12-08T18:35:15.851Z,18486.94
2022-12-08T18:37:44.064Z,18456.47
2022-12-08T18:40:14.962Z,18511.31
2022-12-08T18:42:42.973Z,18495.06
2022-12-08T18:45:12.292Z,18491.00
2022-12-08T18:47:41.882Z,18470.69
2022-12-08T18:50:12.677Z,18466.63
2022-12-08T18:52:42.288Z,18509.28
2022-12-08T18:55:11.119Z,18446.31
2022-12-08T18:57:41.557Z,18470.69
2022-12-08T19:00:13.071Z,18468.66
2022-12-08T19:02:42.280Z,18452.41
2022-12-08T19:05:14.231Z,18462.56
2022-12-08T19:07:45.435Z,18501.16
2022-12-08T19:10:14.055Z,18478.81
2022-12-08T19:12:42.569Z,18480.84
2022-12-08T19:15:11.880Z,18495.06
2022-12-08T19:17:39.934Z,18488.97
2022-12-08T19:20:09.917Z,18480.84
2022-12-08T19:22:38.317Z,18482.88
2022-12-08T19:25:08.990Z,18474.75
2022-12-08T19:27:37.118Z,18474.75
2022-12-08T19:30:07.488Z,18482.88
2022-12-08T19:32:35.766Z,18478.81
2022-12-08T19:35:07.167Z,18495.06
2022-12-08T19:37:35.560Z,18466.63
2022-12-08T19:40:21.945Z,18464.59
2022-12-08T19:43:08.883Z,18488.97
2022-12-08T19:45:37.773Z,18460.53
2022-12-08T19:48:06.769Z,18458.50
2022-12-08T19:50:37.943Z,18438.19
2022-12-08T19:53:09.849Z,18493.03
2022-12-08T19:55:39.014Z,18484.91
2022-12-08T19:58:10.005Z,18468.66
2022-12-08T20:00:44.398Z,18491.00
2022-12-08T20:03:17.302Z,18462.56
2022-12-08T20:05:47.409Z,18482.88
2022-12-08T20:08:16.342Z,18480.84
2022-12-08T20:10:45.710Z,18464.59
2022-12-08T20:13:32.776Z,18468.66
2022-12-08T20:16:00.909Z,18474.75
2022-12-08T20:18:29.657Z,18486.94
2022-12-08T20:20:57.827Z,18454.44
2022-12-08T20:23:25.922Z,18501.16
2022-12-08T20:25:54.044Z,18464.59
2022-12-08T20:28:23.531Z,18440.22
2022-12-08T20:30:52.132Z,18452.41
2022-12-08T20:33:21.163Z,18456.47
2022-12-08T20:35:59.253Z,18462.56
2022-12-08T20:38:27.630Z,18436.16
2022-12-08T20:40:55.973Z,18456.47
2022-12-08T20:43:26.100Z,18468.66
2022-12-08T20:45:54.179Z,18470.69
2022-12-08T20:48:22.416Z,18474.75
2022-12-08T20:50:52.121Z,18468.66
2022-12-08T20:53:20.433Z,18468.66
2022-12-08T20:55:48.582Z,18482.88
2022-12-08T20:58:16.741Z,18454.44
2022-12-08T21:00:46.326Z,18452.41
2022-12-08T21:03:15.353Z,18499.13
2022-12-08T21:05:50.296Z,18499.13
2022-12-08T21:08:19.239Z,18460.53
2022-12-08T21:10:54.400Z,18464.59
2022-12-08T21:13:23.029Z,18434.13
2022-12-08T21:15:52.856Z,18448.34
2022-12-08T21:18:21.448Z,18466.63
2022-12-08T21:20:50.286Z,18468.66
2022-12-08T21:23:18.937Z,18474.75
2022-12-08T21:25:48.502Z,18432.09
2022-12-08T21:28:16.725Z,18444.28
2022-12-08T21:30:44.990Z,18476.78
2022-12-08T21:33:14.826Z,18446.31
2022-12-08T21:35:43.154Z,18425.97
2022-12-08T21:38:11.469Z,18434.13
2022-12-08T21:40:39.651Z,18448.34
2022-12-08T21:43:08.018Z,18430.06
2022-12-08T21:45:36.166Z,18444.28
2022-12-08T21:48:10.731Z,18444.28
2022-12-08T21:50:41.124Z,18434.13
2022-12-08T21:53:09.415Z,18436.16
2022-12-08T21:55:37.657Z,18432.09
2022-12-08T21:58:06.242Z,18448.34
2022-12-08T22:00:34.613Z,18436.16
2022-12-08T22:03:02.968Z,18466.63
2022-12-08T22:05:31.228Z,18450.38
2022-12-08T22:08:00.849Z,18417.84
2022-12-08T22:10:29.297Z,18438.19
2022-12-08T22:12:57.549Z,18460.53
2022-12-08T22:15:26.222Z,18428.03
2022-12-08T22:17:54.455Z,18452.41
2022-12-08T22:20:22.705Z,18466.63
2022-12-08T22:22:50.873Z,18464.59
2022-12-08T22:25:20.701Z,18432.09
2022-12-08T22:27:48.997Z,18448.34
2022-12-08T22:30:17.495Z,18452.41
2022-12-08T22:32:46.639Z,18446.31
2022-12-08T22:35:14.984Z,18454.44
2022-12-08T22:37:43.304Z,18442.25
2022-12-08T22:40:12.800Z,18440.22
2022-12-08T22:42:42.533Z,18446.31
2022-12-08T22:45:12.302Z,18454.44
2022-12-08T22:47:40.606Z,18454.44
2022-12-08T22:50:09.890Z,18428.03
2022-12-08T22:52:38.400Z,18454.44
2022-12-08T22:55:08.239Z,18446.31
2022-12-08T22:57:36.528Z,18474.75
2022-12-08T23:00:11.427Z,18428.03
2022-12-08T23:02:40.158Z,18448.34
2022-12-08T23:05:09.851Z,18444.28
2022-12-08T23:07:38.343Z,18446.31
2022-12-08T23:10:09.266Z,18409.72
2022-12-08T23:12:37.892Z,18434.13
2022-12-08T23:15:09.235Z,18421.91
2022-12-08T23:17:37.483Z,18444.28
2022-12-08T23:20:07.434Z,18454.44
2022-12-08T23:22:36.062Z,18440.22
2022-12-08T23:25:04.942Z,18438.19
2022-12-08T23:27:33.575Z,18464.59
2022-12-08T23:30:01.749Z,18482.88
2022-12-08T23:32:31.293Z,18446.31
2022-12-08T23:34:59.498Z,18462.56
2022-12-08T23:37:29.040Z,18450.38
2022-12-08T23:39:57.354Z,18454.44
2022-12-08T23:42:25.653Z,18474.75
2022-12-08T23:44:53.996Z,18484.91
2022-12-08T23:47:22.163Z,18460.53
2022-12-08T23:49:52.022Z,18458.50
2022-12-08T23:52:20.233Z,18448.34
2022-12-08T23:54:51.190Z,18484.91
2022-12-08T23:57:19.541Z,18432.09
2022-12-08T23:59:48.326Z,18436.16
